createdAt,value
2024-02-06T00:01:04.094Z,36.40
2024-02-06T00:03:33.297Z,36.40
2024-02-06T00:06:03.061Z,36.40
2024-02-06T00:08:30.182Z,36.40
2024-02-06T00:10:57.323Z,36.40
2024-02-06T00:13:26.804Z,36.40
2024-02-06T00:15:54.676Z,36.50
2024-02-06T00:18:21.857Z,36.50
2024-02-06T00:20:49.010Z,36.40
2024-02-06T00:23:16.143Z,36.50
2024-02-06T00:25:43.433Z,36.50
2024-02-06T00:28:12.960Z,36.60
2024-02-06T00:30:40.305Z,36.60
2024-02-06T00:33:07.465Z,36.50
2024-02-06T00:35:34.607Z,36.50
2024-02-06T00:38:01.688Z,36.50
2024-02-06T00:40:28.730Z,36.50
2024-02-06T00:42:55.900Z,36.60
2024-02-06T00:45:23.277Z,36.60
2024-02-06T00:47:51.318Z,36.60
2024-02-06T00:50:19.262Z,36.60
2024-02-06T00:52:47.374Z,36.60
2024-02-06T00:55:15.412Z,36.60
2024-02-06T00:57:42.658Z,36.60
2024-02-06T01:00:10.902Z,36.60
2024-02-06T01:02:38.559Z,36.60
2024-02-06T01:05:06.157Z,36.60
2024-02-06T01:07:33.627Z,36.60
2024-02-06T01:10:01.216Z,36.60
2024-02-06T01:12:28.465Z,36.50
2024-02-06T01:14:56.430Z,36.70
2024-02-06T01:17:23.645Z,36.60
2024-02-06T01:19:51.161Z,36.70
2024-02-06T01:22:18.379Z,36.60
2024-02-06T01:24:45.780Z,36.70
2024-02-06T01:27:12.905Z,36.60
2024-02-06T01:29:39.981Z,36.60
2024-02-06T01:32:07.571Z,36.60
2024-02-06T01:34:34.675Z,36.60
2024-02-06T01:37:02.116Z,36.60
2024-02-06T01:39:29.201Z,36.60
2024-02-06T01:41:56.262Z,36.60
2024-02-06T01:44:25.682Z,36.70
2024-02-06T01:46:57.573Z,36.70
2024-02-06T01:49:26.227Z,36.70
2024-02-06T01:51:54.844Z,36.70
2024-02-06T01:54:22.388Z,36.70
2024-02-06T01:56:50.519Z,36.70
2024-02-06T01:59:18.400Z,36.70
2024-02-06T02:01:45.984Z,36.70
2024-02-06T02:04:14.110Z,36.70
2024-02-06T02:06:42.452Z,36.70
2024-02-06T02:09:13.213Z,36.70
2024-02-06T02:11:40.440Z,36.70
2024-02-06T02:14:08.845Z,36.70
2024-02-06T02:16:36.252Z,36.80
2024-02-06T02:19:03.610Z,36.70
2024-02-06T02:21:31.534Z,36.70
2024-02-06T02:23:59.125Z,36.70
2024-02-06T02:26:27.111Z,36.70
2024-02-06T02:28:55.232Z,36.70
2024-02-06T02:31:23.986Z,36.70
2024-02-06T02:33:51.290Z,36.80
2024-02-06T02:36:18.718Z,36.70
2024-02-06T02:38:45.878Z,36.70
2024-02-06T02:41:13.146Z,36.70
2024-02-06T02:43:40.397Z,36.80
2024-02-06T02:46:08.121Z,36.80
2024-02-06T02:48:36.069Z,36.80
2024-02-06T02:51:03.609Z,36.80
2024-02-06T02:53:30.678Z,36.80
2024-02-06T02:55:59.384Z,36.80
2024-02-06T02:58:26.730Z,36.80
2024-02-06T03:00:54.932Z,36.80
2024-02-06T03:03:22.194Z,36.90
2024-02-06T03:05:49.402Z,36.80
2024-02-06T03:08:16.467Z,36.80
2024-02-06T03:10:43.671Z,36.80
2024-02-06T03:13:10.974Z,36.80
2024-02-06T03:15:38.019Z,36.90
2024-02-06T03:18:05.326Z,36.90
2024-02-06T03:20:32.388Z,36.90
2024-02-06T03:22:59.513Z,36.90
2024-02-06T03:25:26.671Z,36.90
2024-02-06T03:27:53.758Z,36.90
2024-02-06T03:30:24.653Z,36.90
2024-02-06T03:32:55.288Z,36.80
2024-02-06T03:35:23.290Z,37.40
2024-02-06T03:37:50.442Z,36.90
2024-02-06T03:40:17.463Z,36.90
2024-02-06T03:42:44.500Z,36.80
2024-02-06T03:45:11.685Z,36.80
2024-02-06T03:47:38.740Z,36.80
2024-02-06T03:50:07.748Z,36.80
2024-02-06T03:52:35.471Z,36.80
2024-02-06T03:55:03.079Z,36.80
2024-02-06T03:57:30.291Z,36.80
2024-02-06T03:59:57.403Z,36.80
2024-02-06T04:02:24.511Z,36.80
2024-02-06T04:04:52.081Z,36.90
2024-02-06T04:07:19.587Z,36.80
2024-02-06T04:09:46.845Z,36.90
2024-02-06T04:12:14.005Z,36.80
2024-02-06T04:14:41.737Z,36.90
2024-02-06T04:17:09.037Z,36.80
2024-02-06T04:19:36.314Z,36.80
2024-02-06T04:22:04.027Z,36.80
2024-02-06T04:24:31.163Z,36.90
2024-02-06T04:26:58.423Z,36.90
2024-02-06T04:29:25.953Z,36.90
2024-02-06T04:31:53.965Z,36.90
2024-02-06T04:34:21.279Z,36.90
2024-02-06T04:36:48.465Z,36.90
2024-02-06T04:39:16.792Z,36.90
2024-02-06T04:41:43.909Z,36.80
2024-02-06T04:44:11.177Z,36.90
2024-02-06T04:46:38.536Z,36.90
2024-02-06T04:49:05.823Z,36.90
2024-02-06T04:51:34.861Z,36.80
2024-02-06T04:54:01.974Z,36.90
2024-02-06T04:56:29.092Z,36.90
2024-02-06T04:58:56.124Z,36.90
2024-02-06T05:01:23.392Z,36.90
2024-02-06T05:03:50.532Z,36.90
2024-02-06T05:06:17.776Z,36.90
2024-02-06T05:08:45.323Z,36.90
2024-02-06T05:11:13.725Z,36.90
2024-02-06T05:13:41.637Z,36.90
2024-02-06T05:16:08.867Z,36.90
2024-02-06T05:18:36.314Z,36.90
2024-02-06T05:21:04.102Z,36.90
2024-02-06T05:23:31.472Z,36.90
2024-02-06T05:25:58.740Z,36.90
2024-02-06T05:28:25.969Z,36.90
2024-02-06T05:30:53.403Z,36.90
2024-02-06T05:33:20.873Z,36.90
2024-02-06T05:35:48.265Z,36.90
2024-02-06T05:38:16.375Z,36.90
2024-02-06T05:40:44.393Z,37.00
2024-02-06T05:43:11.805Z,37.60
2024-02-06T05:45:39.765Z,36.90
2024-02-06T05:48:07.354Z,37.00
2024-02-06T05:50:34.670Z,36.90
2024-02-06T05:53:01.872Z,37.00
2024-02-06T05:55:30.703Z,36.90
2024-02-06T05:57:57.898Z,37.00
2024-02-06T06:00:27.716Z,36.90
2024-02-06T06:02:55.251Z,36.90
2024-02-06T06:05:24.821Z,36.90
2024-02-06T06:07:52.341Z,37.00
2024-02-06T06:10:19.882Z,37.10
2024-02-06T06:12:47.160Z,37.20
2024-02-06T06:15:16.251Z,37.30
2024-02-06T06:17:43.571Z,37.50
2024-02-06T06:20:11.720Z,37.70
2024-02-06T06:22:39.054Z,37.80
2024-02-06T06:25:07.124Z,37.90
2024-02-06T06:27:34.276Z,37.90
2024-02-06T06:30:01.576Z,37.90
2024-02-06T06:32:28.665Z,38.50
2024-02-06T06:34:55.905Z,38.00
2024-02-06T06:37:23.841Z,37.90
2024-02-06T06:39:51.222Z,37.90
2024-02-06T06:42:19.129Z,37.80
2024-02-06T06:44:46.324Z,37.80
2024-02-06T06:47:13.509Z,37.70
2024-02-06T06:49:41.392Z,37.70
2024-02-06T06:52:09.111Z,37.70
2024-02-06T06:54:36.721Z,37.50
2024-02-06T06:57:05.126Z,37.40
2024-02-06T06:59:33.113Z,37.30
2024-02-06T07:02:00.911Z,37.20
2024-02-06T07:04:29.282Z,37.10
2024-02-06T07:06:56.686Z,37.00
2024-02-06T07:09:26.864Z,36.90
2024-02-06T07:11:54.564Z,36.90
2024-02-06T07:14:21.801Z,36.70
2024-02-06T07:16:51.047Z,36.70
2024-02-06T07:19:19.260Z,36.60
2024-02-06T07:21:57.254Z,36.60
2024-02-06T07:24:26.873Z,36.10
2024-02-06T07:26:56.268Z,36.30
2024-02-06T07:29:25.633Z,36.30
2024-02-06T07:31:54.632Z,36.20
2024-02-06T07:34:23.103Z,36.20
2024-02-06T07:36:54.909Z,36.10
2024-02-06T07:39:23.192Z,36.00
2024-02-06T07:41:51.329Z,35.90
2024-02-06T07:44:19.388Z,35.90
2024-02-06T07:46:46.583Z,35.80
2024-02-06T07:49:14.235Z,35.80
2024-02-06T07:51:43.133Z,35.70
2024-02-06T07:54:10.580Z,35.70
2024-02-06T07:56:39.577Z,35.70
2024-02-06T07:59:07.144Z,35.70
2024-02-06T08:01:35.254Z,35.80
2024-02-06T08:04:05.208Z,35.80
2024-02-06T08:06:34.017Z,35.80
2024-02-06T08:09:01.407Z,35.80
2024-02-06T08:11:28.828Z,35.80
2024-02-06T08:13:56.206Z,36.10
2024-02-06T08:16:23.305Z,35.70
2024-02-06T08:18:50.537Z,35.80
2024-02-06T08:21:17.625Z,35.80
2024-02-06T08:23:44.954Z,35.70
2024-02-06T08:26:12.322Z,35.70
2024-02-06T08:28:39.399Z,36.30
2024-02-06T08:31:09.019Z,35.70
2024-02-06T08:33:36.230Z,35.70
2024-02-06T08:36:03.737Z,35.70
2024-02-06T08:38:31.726Z,35.80
2024-02-06T08:40:59.035Z,36.40
2024-02-06T08:43:35.539Z,35.90
2024-02-06T08:46:09.089Z,36.00
2024-02-06T08:48:39.961Z,36.00
2024-02-06T08:51:07.563Z,35.90
2024-02-06T08:53:34.716Z,35.90
2024-02-06T08:56:04.649Z,35.90
2024-02-06T08:58:31.853Z,36.00
2024-02-06T09:00:59.400Z,35.90
2024-02-06T09:03:29.527Z,35.90
2024-02-06T09:05:58.158Z,35.90
2024-02-06T09:08:25.869Z,35.80
2024-02-06T09:10:53.248Z,35.90
2024-02-06T09:13:23.418Z,35.80
2024-02-06T09:15:51.193Z,35.80
2024-02-06T09:18:18.456Z,35.80
2024-02-06T09:20:45.629Z,36.30
2024-02-06T09:23:14.940Z,35.70
2024-02-06T09:25:44.902Z,35.70
2024-02-06T09:28:13.131Z,35.70
2024-02-06T09:30:41.097Z,35.70
2024-02-06T09:33:08.753Z,35.60
2024-02-06T09:35:36.874Z,36.20
2024-02-06T09:38:06.640Z,35.60
2024-02-06T09:40:34.656Z,35.60
2024-02-06T09:43:06.546Z,35.60
2024-02-06T09:45:36.339Z,35.60
2024-02-06T09:48:04.386Z,35.40
2024-02-06T09:50:31.684Z,35.50
2024-02-06T09:53:03.720Z,35.50
2024-02-06T09:55:32.456Z,35.40
2024-02-06T09:58:00.931Z,35.40
2024-02-06T10:00:29.285Z,35.40
2024-02-06T10:03:00.121Z,35.40
2024-02-06T10:05:44.025Z,35.30
2024-02-06T10:08:14.423Z,35.30
2024-02-06T10:10:47.258Z,35.30
2024-02-06T10:13:15.888Z,35.40
2024-02-06T10:15:43.404Z,35.40
2024-02-06T10:18:11.036Z,35.30
2024-02-06T10:20:49.478Z,35.30
2024-02-06T10:23:22.176Z,35.30
2024-02-06T10:26:03.901Z,35.40
2024-02-06T10:28:31.412Z,35.40
2024-02-06T10:30:58.998Z,35.50
2024-02-06T10:33:31.013Z,35.60
2024-02-06T10:36:05.931Z,36.30
2024-02-06T10:38:33.570Z,35.70
2024-02-06T10:41:12.031Z,35.80
2024-02-06T10:43:47.273Z,35.90
2024-02-06T10:46:23.967Z,36.10
2024-02-06T10:49:02.490Z,35.00
2024-02-06T10:51:30.547Z,34.70
2024-02-06T10:53:58.763Z,34.40
2024-02-06T10:56:28.413Z,34.20
2024-02-06T10:59:02.388Z,34.20
2024-02-06T11:01:39.667Z,34.00
2024-02-06T11:04:13.219Z,34.00
2024-02-06T11:06:53.288Z,34.20
2024-02-06T11:09:29.234Z,34.50
2024-02-06T11:11:59.904Z,34.50
2024-02-06T11:14:28.611Z,34.70
2024-02-06T11:17:02.748Z,35.00
2024-02-06T11:19:59.893Z,35.60
2024-02-06T11:22:32.456Z,36.00
2024-02-06T11:25:03.964Z,36.00
2024-02-06T11:27:33.511Z,36.20
2024-02-06T11:30:02.057Z,36.40
2024-02-06T11:32:29.966Z,36.50
2024-02-06T11:34:57.549Z,36.50
2024-02-06T11:37:27.180Z,36.50
2024-02-06T11:40:13.581Z,36.40
2024-02-06T11:42:41.730Z,36.30
2024-02-06T11:45:10.831Z,36.30
2024-02-06T11:47:56.894Z,36.30
2024-02-06T11:50:42.501Z,36.10
2024-02-06T11:53:15.166Z,36.10
2024-02-06T11:55:43.600Z,36.10
2024-02-06T11:58:11.862Z,35.90
2024-02-06T12:00:40.075Z,35.80
2024-02-06T12:03:08.634Z,35.80
2024-02-06T12:05:45.368Z,35.70
2024-02-06T12:08:22.915Z,35.60
2024-02-06T12:10:51.411Z,35.50
2024-02-06T12:13:22.933Z,35.50
2024-02-06T12:15:52.065Z,35.40
2024-02-06T12:18:21.649Z,35.40
2024-02-06T12:20:50.253Z,35.30
2024-02-06T12:23:17.929Z,35.20
2024-02-06T12:25:50.185Z,35.30
2024-02-06T12:28:18.036Z,35.30
2024-02-06T12:30:52.218Z,35.30
2024-02-06T12:33:24.229Z,35.50
2024-02-06T12:35:56.292Z,35.40
2024-02-06T12:38:24.102Z,35.30
2024-02-06T12:40:51.709Z,35.30
2024-02-06T12:43:24.200Z,35.40
2024-02-06T12:45:53.583Z,35.40
2024-02-06T12:48:21.474Z,35.40
2024-02-06T12:50:50.782Z,35.50
2024-02-06T12:53:26.646Z,35.50
2024-02-06T12:55:54.793Z,35.50
2024-02-06T12:58:23.061Z,35.50
2024-02-06T13:01:01.499Z,35.50
2024-02-06T13:03:31.969Z,35.60
2024-02-06T13:06:00.249Z,35.50
2024-02-06T13:08:31.571Z,35.60
2024-02-06T13:11:14.035Z,35.50
2024-02-06T13:13:42.414Z,35.50
2024-02-06T13:16:13.820Z,35.50
2024-02-06T13:18:41.546Z,35.50
2024-02-06T13:21:09.777Z,35.40
2024-02-06T13:23:38.167Z,35.50
2024-02-06T13:26:05.945Z,35.70
2024-02-06T13:28:33.480Z,35.80
2024-02-06T13:31:02.451Z,35.80
2024-02-06T13:33:30.740Z,35.70
2024-02-06T13:35:58.334Z,35.60
2024-02-06T13:38:25.881Z,35.60
2024-02-06T13:40:53.374Z,35.60
2024-02-06T13:43:21.022Z,35.50
2024-02-06T13:45:48.634Z,36.20
2024-02-06T13:48:16.125Z,35.60
2024-02-06T13:50:44.297Z,35.50
2024-02-06T13:53:11.707Z,35.60
2024-02-06T13:55:39.040Z,35.60
2024-02-06T13:58:09.446Z,35.60
2024-02-06T14:00:37.995Z,35.70
2024-02-06T14:03:06.255Z,35.60
2024-02-06T14:05:35.028Z,35.60
2024-02-06T14:08:03.019Z,35.60
2024-02-06T14:10:30.344Z,35.60
2024-02-06T14:12:57.507Z,35.60
2024-02-06T14:15:25.216Z,35.60
2024-02-06T14:17:53.052Z,35.60
2024-02-06T14:20:21.527Z,35.60
2024-02-06T14:22:49.350Z,35.60
2024-02-06T14:25:18.359Z,35.50
2024-02-06T14:27:46.070Z,35.60
2024-02-06T14:30:14.179Z,35.60
2024-02-06T14:32:43.244Z,35.50
2024-02-06T14:35:11.558Z,35.60
2024-02-06T14:37:40.744Z,35.60
2024-02-06T14:40:12.496Z,35.60
2024-02-06T14:42:40.671Z,35.70
2024-02-06T14:45:08.726Z,35.70
2024-02-06T14:47:36.391Z,35.70
2024-02-06T14:50:07.526Z,35.70
2024-02-06T14:52:35.570Z,35.70
2024-02-06T14:55:07.826Z,35.70
2024-02-06T14:57:35.620Z,35.70
2024-02-06T15:00:04.221Z,35.80
2024-02-06T15:02:31.543Z,35.70
2024-02-06T15:05:00.375Z,35.70
2024-02-06T15:07:28.582Z,35.80
2024-02-06T15:09:58.094Z,35.90
2024-02-06T15:12:26.188Z,36.50
2024-02-06T15:14:55.696Z,35.80
2024-02-06T15:17:23.427Z,35.80
2024-02-06T15:19:54.691Z,35.90
2024-02-06T15:22:22.773Z,35.90
2024-02-06T15:24:52.111Z,35.90
2024-02-06T15:27:20.066Z,35.90
2024-02-06T15:29:48.301Z,35.90
2024-02-06T15:32:16.555Z,35.90
2024-02-06T15:34:49.462Z,35.90
2024-02-06T15:37:17.094Z,35.90
2024-02-06T15:39:54.726Z,35.90
2024-02-06T15:42:22.824Z,35.90
2024-02-06T15:44:50.406Z,35.80
2024-02-06T15:47:21.340Z,35.80
2024-02-06T15:49:49.371Z,35.80
2024-02-06T15:52:17.264Z,35.90
2024-02-06T15:54:48.203Z,35.90
2024-02-06T15:57:16.767Z,35.90
2024-02-06T15:59:45.920Z,35.90
2024-02-06T16:02:16.051Z,36.00
2024-02-06T16:04:44.632Z,36.00
2024-02-06T16:07:12.529Z,36.50
2024-02-06T16:09:40.415Z,36.30
2024-02-06T16:12:08.826Z,35.70
2024-02-06T16:14:36.149Z,36.50
2024-02-06T16:17:06.093Z,36.40
2024-02-06T16:19:40.263Z,36.40
2024-02-06T16:22:15.332Z,36.40
2024-02-06T16:24:43.098Z,36.50
2024-02-06T16:27:10.992Z,36.40
2024-02-06T16:29:38.665Z,36.40
2024-02-06T16:32:06.730Z,36.40
2024-02-06T16:34:39.763Z,36.50
2024-02-06T16:37:09.201Z,36.50
2024-02-06T16:39:38.254Z,36.80
2024-02-06T16:42:07.238Z,36.60
2024-02-06T16:44:35.677Z,36.60
2024-02-06T16:47:03.586Z,36.50
2024-02-06T16:49:31.512Z,36.50
2024-02-06T16:51:59.151Z,36.40
2024-02-06T16:54:26.802Z,36.00
2024-02-06T16:56:54.323Z,36.30
2024-02-06T16:59:23.605Z,36.20
2024-02-06T17:01:51.494Z,36.20
2024-02-06T17:04:19.744Z,36.20
2024-02-06T17:06:47.845Z,36.20
2024-02-06T17:09:15.374Z,36.20
2024-02-06T17:11:46.297Z,36.10
2024-02-06T17:14:16.194Z,36.20
2024-02-06T17:16:50.086Z,36.70
2024-02-06T17:19:17.693Z,36.10
2024-02-06T17:21:46.931Z,36.00
2024-02-06T17:24:15.232Z,36.10
2024-02-06T17:26:42.799Z,36.00
2024-02-06T17:29:10.256Z,36.00
2024-02-06T17:31:39.309Z,36.00
2024-02-06T17:34:08.561Z,36.10
2024-02-06T17:36:41.136Z,36.10
2024-02-06T17:39:09.470Z,36.10
2024-02-06T17:41:37.194Z,36.10
2024-02-06T17:44:05.590Z,36.20
2024-02-06T17:46:33.229Z,36.20
2024-02-06T17:49:01.292Z,36.30
2024-02-06T17:51:30.096Z,36.20
2024-02-06T17:53:58.105Z,36.30
2024-02-06T17:56:25.342Z,36.30
2024-02-06T17:58:53.592Z,36.30
2024-02-06T18:01:26.218Z,36.30
2024-02-06T18:03:56.421Z,36.40
2024-02-06T18:06:26.080Z,36.40
2024-02-06T18:08:55.005Z,36.40
2024-02-06T18:11:23.984Z,36.00
2024-02-06T18:13:52.200Z,37.00
2024-02-06T18:16:19.950Z,36.80
2024-02-06T18:18:47.844Z,36.80
2024-02-06T18:21:16.988Z,36.70
2024-02-06T18:23:44.583Z,36.60
2024-02-06T18:26:12.897Z,36.70
2024-02-06T18:28:44.383Z,36.60
2024-02-06T18:31:17.395Z,36.60
2024-02-06T18:33:45.759Z,36.60
2024-02-06T18:36:13.412Z,36.50
2024-02-06T18:38:42.817Z,36.60
2024-02-06T18:41:21.459Z,36.50
2024-02-06T18:43:53.466Z,36.50
2024-02-06T18:46:21.715Z,36.90
2024-02-06T18:48:49.143Z,36.50
2024-02-06T18:51:21.922Z,36.50
2024-02-06T18:53:51.084Z,36.60
2024-02-06T18:56:19.021Z,36.60
2024-02-06T18:58:47.569Z,36.60
2024-02-06T19:01:19.334Z,36.60
2024-02-06T19:03:47.485Z,36.60
2024-02-06T19:06:15.761Z,36.60
2024-02-06T19:08:44.073Z,36.70
2024-02-06T19:11:15.531Z,36.70
2024-02-06T19:13:44.256Z,36.70
2024-02-06T19:16:12.224Z,36.70
2024-02-06T19:18:40.911Z,36.70
2024-02-06T19:21:09.716Z,36.80
2024-02-06T19:23:37.628Z,36.80
2024-02-06T19:26:05.823Z,36.80
2024-02-06T19:28:34.281Z,36.80
2024-02-06T19:31:09.048Z,36.90
2024-02-06T19:33:38.452Z,36.90
2024-02-06T19:36:10.160Z,36.80
2024-02-06T19:38:38.488Z,36.90
2024-02-06T19:41:07.130Z,36.90
2024-02-06T19:43:36.468Z,37.50
2024-02-06T19:46:11.390Z,36.80
2024-02-06T19:48:40.718Z,36.90
2024-02-06T19:51:09.291Z,36.90
2024-02-06T19:53:39.770Z,36.90
2024-02-06T19:56:09.358Z,36.90
2024-02-06T19:58:37.494Z,37.00
2024-02-06T20:01:05.805Z,36.90
2024-02-06T20:03:34.096Z,36.90
2024-02-06T20:06:02.230Z,37.00
2024-02-06T20:08:34.666Z,37.00
2024-02-06T20:11:06.094Z,37.10
2024-02-06T20:13:35.349Z,37.00
2024-02-06T20:16:06.752Z,37.10
2024-02-06T20:18:34.388Z,37.10
2024-02-06T20:21:05.592Z,37.10
2024-02-06T20:23:37.888Z,37.10
2024-02-06T20:26:08.063Z,37.00
2024-02-06T20:28:39.753Z,37.10
2024-02-06T20:31:09.320Z,37.20
2024-02-06T20:33:40.555Z,37.10
2024-02-06T20:36:08.485Z,37.10
2024-02-06T20:38:37.710Z,37.10
2024-02-06T20:41:06.703Z,37.20
2024-02-06T20:43:35.248Z,37.40
2024-02-06T20:46:03.342Z,37.20
2024-02-06T20:48:31.177Z,37.20
2024-02-06T20:50:58.900Z,37.20
2024-02-06T20:53:27.938Z,37.20
2024-02-06T20:55:57.847Z,37.30
2024-02-06T20:58:29.018Z,37.30
2024-02-06T21:00:57.767Z,37.40
2024-02-06T21:03:26.891Z,37.60
2024-02-06T21:05:55.346Z,37.30
2024-02-06T21:08:22.828Z,37.30
2024-02-06T21:10:51.574Z,37.40
2024-02-06T21:13:22.514Z,37.30
2024-02-06T21:15:50.653Z,37.30
2024-02-06T21:18:18.946Z,37.30
2024-02-06T21:20:47.929Z,37.30
2024-02-06T21:23:15.787Z,37.30
2024-02-06T21:25:45.407Z,37.40
2024-02-06T21:28:13.468Z,37.40
2024-02-06T21:30:42.552Z,37.40
2024-02-06T21:33:13.313Z,37.40
2024-02-06T21:35:41.623Z,37.40
2024-02-06T21:38:10.676Z,37.40
2024-02-06T21:40:38.428Z,37.40
2024-02-06T21:43:06.524Z,37.40
2024-02-06T21:45:34.073Z,37.40
2024-02-06T21:48:02.206Z,37.40
2024-02-06T21:50:34.174Z,37.40
2024-02-06T21:53:02.465Z,37.40
2024-02-06T21:55:32.401Z,37.40
2024-02-06T21:57:59.752Z,37.40
2024-02-06T22:00:27.958Z,37.40
2024-02-06T22:02:55.685Z,37.40
2024-02-06T22:05:23.498Z,37.50
2024-02-06T22:07:51.913Z,37.50
2024-02-06T22:10:22.209Z,37.40
2024-02-06T22:12:50.009Z,37.50
2024-02-06T22:15:17.306Z,37.50
2024-02-06T22:17:45.730Z,37.50
2024-02-06T22:20:14.134Z,37.50
2024-02-06T22:22:46.172Z,37.50
2024-02-06T22:25:14.886Z,37.50
2024-02-06T22:27:42.244Z,37.50
2024-02-06T22:30:13.856Z,38.10
2024-02-06T22:32:41.840Z,37.50
2024-02-06T22:35:10.275Z,37.50
2024-02-06T22:37:38.063Z,37.50
2024-02-06T22:40:06.398Z,37.50
2024-02-06T22:42:33.705Z,37.50
2024-02-06T22:45:01.013Z,37.50
2024-02-06T22:47:28.612Z,37.60
2024-02-06T22:49:55.751Z,37.60
2024-02-06T22:52:23.530Z,37.50
2024-02-06T22:54:51.179Z,37.60
2024-02-06T22:57:18.867Z,37.50
2024-02-06T22:59:46.944Z,37.60
2024-02-06T23:02:14.411Z,37.60
2024-02-06T23:04:41.793Z,37.50
2024-02-06T23:07:09.245Z,37.60
2024-02-06T23:09:43.652Z,37.60
2024-02-06T23:12:11.080Z,38.20
2024-02-06T23:14:38.344Z,37.60
2024-02-06T23:17:06.350Z,37.60
2024-02-06T23:19:34.040Z,37.60
2024-02-06T23:22:01.942Z,37.60
2024-02-06T23:24:29.167Z,37.60
2024-02-06T23:26:56.477Z,37.60
2024-02-06T23:29:23.774Z,37.80
2024-02-06T23:31:51.120Z,37.70
2024-02-06T23:34:18.439Z,37.70
2024-02-06T23:36:46.083Z,37.70
2024-02-06T23:39:16.613Z,37.70
2024-02-06T23:41:45.544Z,37.70
2024-02-06T23:44:13.393Z,38.30
2024-02-06T23:46:42.563Z,37.70
2024-02-06T23:49:10.733Z,37.70
2024-02-06T23:51:37.981Z,37.70
2024-02-06T23:54:05.969Z,37.80
2024-02-06T23:56:33.615Z,37.70
2024-02-06T23:59:01.348Z,37.80
